Airport ID:KJWN
Update Time (UTC):10/07/2020 04:04
Wind Speed (Knots):1
Wind Direction (Magnetic):230
Temperature (°C):26
Dew Point (°C):24
Humidity (%):89
Altimeter (inHg):29.89
Density Altitude (Feet):2300
Visibility:10+
Clouds (Hundreds of feet):CLR
Present Weather:
METAR:METAR KJWN 100410Z AUTO 00000KT 10SM CLR 26/24 A2989 RMK A01

The data displayed is for advisory purposes only and is not to be used for flight planning or operations.